sensor_id;sensor_type;location;lat;lon;timestamp;temperature;humidity
15099;DHT22;33900;53.640;9.942;2023-04-03T00:01:00;5.80;79.40
15099;DHT22;33900;53.640;9.942;2023-04-03T00:03:26;5.80;79.40
15099;DHT22;33900;53.640;9.942;2023-04-03T00:05:52;5.70;79.50
15099;DHT22;33900;53.640;9.942;2023-04-03T00:08:18;5.70;79.70
15099;DHT22;33900;53.640;9.942;2023-04-03T00:10:44;5.70;79.70
15099;DHT22;33900;53.640;9.942;2023-04-03T00:13:09;5.70;79.80
15099;DHT22;33900;53.640;9.942;2023-04-03T00:15:36;5.60;79.90
15099;DHT22;33900;53.640;9.942;2023-04-03T00:18:03;5.60;80.00
15099;DHT22;33900;53.640;9.942;2023-04-03T00:20:29;5.70;80.30
15099;DHT22;33900;53.640;9.942;2023-04-03T00:22:55;5.70;80.40
15099;DHT22;33900;53.640;9.942;2023-04-03T00:25:21;5.60;80.40
15099;DHT22;33900;53.640;9.942;2023-04-03T00:27:47;5.60;80.50
15099;DHT22;33900;53.640;9.942;2023-04-03T00:30:15;5.60;80.60
15099;DHT22;33900;53.640;9.942;2023-04-03T00:32:45;5.50;80.60
15099;DHT22;33900;53.640;9.942;2023-04-03T00:35:10;5.50;80.70
15099;DHT22;33900;53.640;9.942;2023-04-03T00:37:36;5.50;80.80
15099;DHT22;33900;53.640;9.942;2023-04-03T00:40:03;5.50;80.90
15099;DHT22;33900;53.640;9.942;2023-04-03T00:42:29;5.40;80.90
15099;DHT22;33900;53.640;9.942;2023-04-03T00:47:21;5.40;81.00
15099;DHT22;33900;53.640;9.942;2023-04-03T00:49:47;5.30;81.00
15099;DHT22;33900;53.640;9.942;2023-04-03T00:52:13;5.30;81.10
15099;DHT22;33900;53.640;9.942;2023-04-03T00:54:41;5.30;81.20
15099;DHT22;33900;53.640;9.942;2023-04-03T00:57:07;5.30;81.20
15099;DHT22;33900;53.640;9.942;2023-04-03T00:59:34;5.30;81.30
15099;DHT22;33900;53.640;9.942;2023-04-03T01:02:01;5.20;81.30
15099;DHT22;33900;53.640;9.942;2023-04-03T01:04:45;5.20;81.30
15099;DHT22;33900;53.640;9.942;2023-04-03T01:09:41;5.10;81.50
15099;DHT22;33900;53.640;9.942;2023-04-03T01:12:24;5.10;81.50
15099;DHT22;33900;53.640;9.942;2023-04-03T01:14:51;5.10;81.60
15099;DHT22;33900;53.640;9.942;2023-04-03T01:17:27;5.10;81.70
15099;DHT22;33900;53.640;9.942;2023-04-03T01:22:30;5.00;81.80
15099;DHT22;33900;53.640;9.942;2023-04-03T01:24:59;5.00;81.80
15099;DHT22;33900;53.640;9.942;2023-04-03T01:27:26;4.90;81.80
15099;DHT22;33900;53.640;9.942;2023-04-03T01:29:53;4.90;82.70
15099;DHT22;33900;53.640;9.942;2023-04-03T01:32:18;4.90;82.00
15099;DHT22;33900;53.640;9.942;2023-04-03T01:34:44;4.90;82.10
15099;DHT22;33900;53.640;9.942;2023-04-03T01:37:10;4.80;82.10
15099;DHT22;33900;53.640;9.942;2023-04-03T01:39:36;4.80;82.20
15099;DHT22;33900;53.640;9.942;2023-04-03T01:42:01;4.80;82.30
15099;DHT22;33900;53.640;9.942;2023-04-03T01:44:33;4.80;82.30
15099;DHT22;33900;53.640;9.942;2023-04-03T01:46:59;4.80;82.40
15099;DHT22;33900;53.640;9.942;2023-04-03T01:49:27;4.80;82.50
15099;DHT22;33900;53.640;9.942;2023-04-03T01:51:53;4.70;82.50
15099;DHT22;33900;53.640;9.942;2023-04-03T01:54:19;4.70;82.60
15099;DHT22;33900;53.640;9.942;2023-04-03T01:56:45;4.70;82.70
15099;DHT22;33900;53.640;9.942;2023-04-03T01:59:10;4.70;82.70
15099;DHT22;33900;53.640;9.942;2023-04-03T02:01:36;4.70;82.80
15099;DHT22;33900;53.640;9.942;2023-04-03T02:04:02;4.60;82.80
15099;DHT22;33900;53.640;9.942;2023-04-03T02:06:27;4.60;82.90
15099;DHT22;33900;53.640;9.942;2023-04-03T02:08:53;4.60;83.00
15099;DHT22;33900;53.640;9.942;2023-04-03T02:11:19;4.60;83.10
15099;DHT22;33900;53.640;9.942;2023-04-03T02:13:45;4.60;83.10
15099;DHT22;33900;53.640;9.942;2023-04-03T02:16:11;4.60;83.20
15099;DHT22;33900;53.640;9.942;2023-04-03T02:18:37;4.60;83.30
15099;DHT22;33900;53.640;9.942;2023-04-03T02:21:04;4.60;83.20
15099;DHT22;33900;53.640;9.942;2023-04-03T02:23:31;4.50;83.20
15099;DHT22;33900;53.640;9.942;2023-04-03T02:26:30;4.50;83.20
15099;DHT22;33900;53.640;9.942;2023-04-03T02:28:50;4.50;83.30
15099;DHT22;33900;53.640;9.942;2023-04-03T02:31:15;4.60;83.40
15099;DHT22;33900;53.640;9.942;2023-04-03T02:33:43;4.50;83.50
15099;DHT22;33900;53.640;9.942;2023-04-03T02:36:11;4.50;83.50
15099;DHT22;33900;53.640;9.942;2023-04-03T02:38:40;4.50;83.60
15099;DHT22;33900;53.640;9.942;2023-04-03T02:41:07;4.50;83.60
15099;DHT22;33900;53.640;9.942;2023-04-03T02:43:33;4.50;83.60
15099;DHT22;33900;53.640;9.942;2023-04-03T02:45:59;4.50;83.70
15099;DHT22;33900;53.640;9.942;2023-04-03T02:48:25;4.50;83.70
15099;DHT22;33900;53.640;9.942;2023-04-03T02:50:51;4.50;83.70
15099;DHT22;33900;53.640;9.942;2023-04-03T02:53:17;4.50;83.80
15099;DHT22;33900;53.640;9.942;2023-04-03T02:55:43;4.50;83.90
15099;DHT22;33900;53.640;9.942;2023-04-03T02:58:09;4.40;83.80
15099;DHT22;33900;53.640;9.942;2023-04-03T03:00:35;4.40;83.90
15099;DHT22;33900;53.640;9.942;2023-04-03T03:03:00;4.40;83.90
15099;DHT22;33900;53.640;9.942;2023-04-03T03:05:27;4.40;83.90
15099;DHT22;33900;53.640;9.942;2023-04-03T03:07:53;4.40;84.00
15099;DHT22;33900;53.640;9.942;2023-04-03T03:10:18;4.40;84.00
15099;DHT22;33900;53.640;9.942;2023-04-03T03:12:45;4.40;84.10
15099;DHT22;33900;53.640;9.942;2023-04-03T03:15:11;4.40;84.10
15099;DHT22;33900;53.640;9.942;2023-04-03T03:17:37;4.30;84.10
15099;DHT22;33900;53.640;9.942;2023-04-03T03:20:06;4.30;84.20
15099;DHT22;33900;53.640;9.942;2023-04-03T03:22:33;4.30;84.30
15099;DHT22;33900;53.640;9.942;2023-04-03T03:24:59;4.30;84.30
15099;DHT22;33900;53.640;9.942;2023-04-03T03:27:24;4.30;84.40
15099;DHT22;33900;53.640;9.942;2023-04-03T03:29:50;4.30;84.40
15099;DHT22;33900;53.640;9.942;2023-04-03T03:32:16;4.30;84.40
15099;DHT22;33900;53.640;9.942;2023-04-03T03:34:42;4.30;84.50
15099;DHT22;33900;53.640;9.942;2023-04-03T03:37:08;4.30;84.50
15099;DHT22;33900;53.640;9.942;2023-04-03T03:39:33;4.30;84.70
15099;DHT22;33900;53.640;9.942;2023-04-03T03:41:59;4.20;84.60
15099;DHT22;33900;53.640;9.942;2023-04-03T03:44:25;4.20;84.60
15099;DHT22;33900;53.640;9.942;2023-04-03T03:46:52;4.20;84.70
15099;DHT22;33900;53.640;9.942;2023-04-03T03:49:18;4.20;84.80
15099;DHT22;33900;53.640;9.942;2023-04-03T03:51:43;4.20;84.80
15099;DHT22;33900;53.640;9.942;2023-04-03T03:54:10;4.20;84.80
15099;DHT22;33900;53.640;9.942;2023-04-03T03:56:35;4.20;84.90
15099;DHT22;33900;53.640;9.942;2023-04-03T03:59:01;4.10;84.80
15099;DHT22;33900;53.640;9.942;2023-04-03T04:01:27;4.20;85.00
15099;DHT22;33900;53.640;9.942;2023-04-03T04:03:53;4.10;84.90
15099;DHT22;33900;53.640;9.942;2023-04-03T04:06:24;4.10;85.00
15099;DHT22;33900;53.640;9.942;2023-04-03T04:08:51;4.10;85.00
15099;DHT22;33900;53.640;9.942;2023-04-03T04:11:17;4.10;85.10
15099;DHT22;33900;53.640;9.942;2023-04-03T04:13:44;4.10;85.10
15099;DHT22;33900;53.640;9.942;2023-04-03T04:16:13;4.10;85.10
15099;DHT22;33900;53.640;9.942;2023-04-03T04:18:38;4.00;85.10
15099;DHT22;33900;53.640;9.942;2023-04-03T04:21:04;4.00;86.00
15099;DHT22;33900;53.640;9.942;2023-04-03T04:23:30;4.00;85.20
15099;DHT22;33900;53.640;9.942;2023-04-03T04:25:58;4.00;85.30
15099;DHT22;33900;53.640;9.942;2023-04-03T04:28:24;4.00;85.30
15099;DHT22;33900;53.640;9.942;2023-04-03T04:30:53;4.00;85.40
15099;DHT22;33900;53.640;9.942;2023-04-03T04:33:20;4.00;85.50
15099;DHT22;33900;53.640;9.942;2023-04-03T04:35:47;4.00;85.50
15099;DHT22;33900;53.640;9.942;2023-04-03T04:38:13;4.00;85.50
15099;DHT22;33900;53.640;9.942;2023-04-03T04:40:39;4.00;85.60
15099;DHT22;33900;53.640;9.942;2023-04-03T04:43:06;3.90;85.60
15099;DHT22;33900;53.640;9.942;2023-04-03T04:45:32;3.90;85.60
15099;DHT22;33900;53.640;9.942;2023-04-03T04:47:58;3.90;85.60
15099;DHT22;33900;53.640;9.942;2023-04-03T04:50:24;3.90;85.70
15099;DHT22;33900;53.640;9.942;2023-04-03T04:52:51;3.90;85.70
15099;DHT22;33900;53.640;9.942;2023-04-03T04:55:16;3.90;85.80
15099;DHT22;33900;53.640;9.942;2023-04-03T04:57:42;3.80;85.70
15099;DHT22;33900;53.640;9.942;2023-04-03T05:00:08;3.90;85.80
15099;DHT22;33900;53.640;9.942;2023-04-03T05:02:34;3.80;85.80
15099;DHT22;33900;53.640;9.942;2023-04-03T05:05:00;3.80;85.80
15099;DHT22;33900;53.640;9.942;2023-04-03T05:07:28;3.80;85.90
15099;DHT22;33900;53.640;9.942;2023-04-03T05:09:54;3.80;85.90
15099;DHT22;33900;53.640;9.942;2023-04-03T05:12:20;3.80;86.00
15099;DHT22;33900;53.640;9.942;2023-04-03T05:14:52;3.80;86.00
15099;DHT22;33900;53.640;9.942;2023-04-03T05:17:18;3.80;86.00
15099;DHT22;33900;53.640;9.942;2023-04-03T05:19:50;3.80;86.20
15099;DHT22;33900;53.640;9.942;2023-04-03T05:22:20;3.80;86.10
15099;DHT22;33900;53.640;9.942;2023-04-03T05:24:46;3.80;86.10
15099;DHT22;33900;53.640;9.942;2023-04-03T05:27:11;3.70;86.10
15099;DHT22;33900;53.640;9.942;2023-04-03T05:29:41;3.80;86.20
15099;DHT22;33900;53.640;9.942;2023-04-03T05:32:10;3.80;86.30
15099;DHT22;33900;53.640;9.942;2023-04-03T05:34:36;3.80;86.30
15099;DHT22;33900;53.640;9.942;2023-04-03T05:37:04;3.80;86.30
15099;DHT22;33900;53.640;9.942;2023-04-03T05:39:31;3.80;86.30
15099;DHT22;33900;53.640;9.942;2023-04-03T05:42:00;3.80;86.40
15099;DHT22;33900;53.640;9.942;2023-04-03T05:44:27;3.80;86.50
15099;DHT22;33900;53.640;9.942;2023-04-03T05:46:54;3.80;86.50
15099;DHT22;33900;53.640;9.942;2023-04-03T05:49:19;3.80;86.50
15099;DHT22;33900;53.640;9.942;2023-04-03T05:51:45;3.80;86.50
15099;DHT22;33900;53.640;9.942;2023-04-03T05:54:21;3.80;86.50
15099;DHT22;33900;53.640;9.942;2023-04-03T05:56:50;3.90;86.60
15099;DHT22;33900;53.640;9.942;2023-04-03T05:59:17;3.90;86.60
15099;DHT22;33900;53.640;9.942;2023-04-03T06:01:43;3.90;86.80
15099;DHT22;33900;53.640;9.942;2023-04-03T06:04:09;3.90;86.70
15099;DHT22;33900;53.640;9.942;2023-04-03T06:06:51;3.90;86.70
15099;DHT22;33900;53.640;9.942;2023-04-03T06:09:19;3.90;86.80
15099;DHT22;33900;53.640;9.942;2023-04-03T06:11:44;4.00;86.80
15099;DHT22;33900;53.640;9.942;2023-04-03T06:14:11;4.00;86.80
15099;DHT22;33900;53.640;9.942;2023-04-03T06:16:37;4.10;87.80
15099;DHT22;33900;53.640;9.942;2023-04-03T06:19:07;4.10;87.10
15099;DHT22;33900;53.640;9.942;2023-04-03T06:21:33;4.20;87.20
15099;DHT22;33900;53.640;9.942;2023-04-03T06:23:59;4.20;87.10
15099;DHT22;33900;53.640;9.942;2023-04-03T06:26:24;4.30;87.20
15099;DHT22;33900;53.640;9.942;2023-04-03T06:28:50;4.30;87.20
15099;DHT22;33900;53.640;9.942;2023-04-03T06:31:16;4.40;87.30
15099;DHT22;33900;53.640;9.942;2023-04-03T06:33:42;4.50;87.30
15099;DHT22;33900;53.640;9.942;2023-04-03T06:36:09;4.50;87.30
15099;DHT22;33900;53.640;9.942;2023-04-03T06:38:35;4.60;87.30
15099;DHT22;33900;53.640;9.942;2023-04-03T06:41:01;4.60;87.30
15099;DHT22;33900;53.640;9.942;2023-04-03T06:43:27;4.70;87.30
15099;DHT22;33900;53.640;9.942;2023-04-03T06:45:52;4.80;87.30
15099;DHT22;33900;53.640;9.942;2023-04-03T06:48:18;4.80;87.40
15099;DHT22;33900;53.640;9.942;2023-04-03T06:50:46;4.90;87.30
15099;DHT22;33900;53.640;9.942;2023-04-03T06:53:15;5.00;87.30
15099;DHT22;33900;53.640;9.942;2023-04-03T06:55:41;5.00;87.20
15099;DHT22;33900;53.640;9.942;2023-04-03T06:58:08;5.10;87.20
15099;DHT22;33900;53.640;9.942;2023-04-03T07:00:34;5.10;87.20
15099;DHT22;33900;53.640;9.942;2023-04-03T07:03:00;5.20;87.20
15099;DHT22;33900;53.640;9.942;2023-04-03T07:05:26;5.30;87.10
15099;DHT22;33900;53.640;9.942;2023-04-03T07:07:52;5.40;87.10
15099;DHT22;33900;53.640;9.942;2023-04-03T07:10:17;5.50;87.00
15099;DHT22;33900;53.640;9.942;2023-04-03T07:12:43;5.60;87.10
15099;DHT22;33900;53.640;9.942;2023-04-03T07:15:12;6.00;88.20
15099;DHT22;33900;53.640;9.942;2023-04-03T07:17:39;6.80;88.70
15099;DHT22;33900;53.640;9.942;2023-04-03T07:20:05;7.70;88.00
15099;DHT22;33900;53.640;9.942;2023-04-03T07:22:32;8.70;86.70
15099;DHT22;33900;53.640;9.942;2023-04-03T07:24:58;9.30;85.70
15099;DHT22;33900;53.640;9.942;2023-04-03T07:27:25;9.80;85.30
15099;DHT22;33900;53.640;9.942;2023-04-03T07:29:51;10.40;84.40
15099;DHT22;33900;53.640;9.942;2023-04-03T07:32:17;10.90;83.60
15099;DHT22;33900;53.640;9.942;2023-04-03T07:34:44;11.60;82.30
15099;DHT22;33900;53.640;9.942;2023-04-03T07:37:10;12.00;80.70
15099;DHT22;33900;53.640;9.942;2023-04-03T07:39:35;12.60;79.10
15099;DHT22;33900;53.640;9.942;2023-04-03T07:42:01;12.70;77.20
15099;DHT22;33900;53.640;9.942;2023-04-03T07:44:27;12.60;76.60
15099;DHT22;33900;53.640;9.942;2023-04-03T07:46:53;13.00;76.50
15099;DHT22;33900;53.640;9.942;2023-04-03T07:49:20;13.60;73.40
15099;DHT22;33900;53.640;9.942;2023-04-03T07:51:48;13.80;71.40
15099;DHT22;33900;53.640;9.942;2023-04-03T07:54:14;13.60;70.80
15099;DHT22;33900;53.640;9.942;2023-04-03T07:56:41;13.80;71.50
15099;DHT22;33900;53.640;9.942;2023-04-03T07:59:08;14.20;70.40
15099;DHT22;33900;53.640;9.942;2023-04-03T08:01:34;15.00;69.00
15099;DHT22;33900;53.640;9.942;2023-04-03T08:04:00;15.70;66.60
15099;DHT22;33900;53.640;9.942;2023-04-03T08:06:25;16.40;64.50
15099;DHT22;33900;53.640;9.942;2023-04-03T08:08:51;17.00;61.00
15099;DHT22;33900;53.640;9.942;2023-04-03T08:11:17;17.30;58.90
15099;DHT22;33900;53.640;9.942;2023-04-03T08:13:44;17.30;58.10
15099;DHT22;33900;53.640;9.942;2023-04-03T08:16:11;17.50;57.50
15099;DHT22;33900;53.640;9.942;2023-04-03T08:18:38;17.50;55.40
15099;DHT22;33900;53.640;9.942;2023-04-03T08:21:11;17.20;54.50
15099;DHT22;33900;53.640;9.942;2023-04-03T08:23:37;16.80;54.60
15099;DHT22;33900;53.640;9.942;2023-04-03T08:26:07;16.40;54.50
15099;DHT22;33900;53.640;9.942;2023-04-03T08:28:33;16.30;54.70
15099;DHT22;33900;53.640;9.942;2023-04-03T08:31:02;16.50;55.20
15099;DHT22;33900;53.640;9.942;2023-04-03T08:33:28;17.40;54.80
15099;DHT22;33900;53.640;9.942;2023-04-03T08:35:53;18.20;52.20
15099;DHT22;33900;53.640;9.942;2023-04-03T08:38:19;18.50;50.50
15099;DHT22;33900;53.640;9.942;2023-04-03T08:40:45;18.90;50.00
15099;DHT22;33900;53.640;9.942;2023-04-03T08:45:50;19.40;47.70
15099;DHT22;33900;53.640;9.942;2023-04-03T08:48:22;19.50;47.70
15099;DHT22;33900;53.640;9.942;2023-04-03T08:50:59;19.80;47.10
15099;DHT22;33900;53.640;9.942;2023-04-03T08:53:28;19.70;47.40
15099;DHT22;33900;53.640;9.942;2023-04-03T08:55:58;19.60;47.40
15099;DHT22;33900;53.640;9.942;2023-04-03T08:58:29;19.40;46.90
15099;DHT22;33900;53.640;9.942;2023-04-03T09:01:00;19.20;45.80
15099;DHT22;33900;53.640;9.942;2023-04-03T09:03:29;19.20;45.20
15099;DHT22;33900;53.640;9.942;2023-04-03T09:08:32;19.50;45.50
15099;DHT22;33900;53.640;9.942;2023-04-03T09:11:46;19.10;44.50
15099;DHT22;33900;53.640;9.942;2023-04-03T09:13:53;18.50;44.70
15099;DHT22;33900;53.640;9.942;2023-04-03T09:16:43;18.20;45.50
15099;DHT22;33900;53.640;9.942;2023-04-03T09:21:42;18.30;46.10
15099;DHT22;33900;53.640;9.942;2023-04-03T09:24:10;18.60;46.20
15099;DHT22;33900;53.640;9.942;2023-04-03T09:29:24;19.30;44.90
15099;DHT22;33900;53.640;9.942;2023-04-03T09:31:50;19.10;44.60
15099;DHT22;33900;53.640;9.942;2023-04-03T09:36:52;19.20;44.70
15099;DHT22;33900;53.640;9.942;2023-04-03T09:39:28;19.50;44.20
15099;DHT22;33900;53.640;9.942;2023-04-03T09:42:05;19.60;44.10
15099;DHT22;33900;53.640;9.942;2023-04-03T09:44:32;19.50;43.90
15099;DHT22;33900;53.640;9.942;2023-04-03T09:46:58;19.50;43.10
15099;DHT22;33900;53.640;9.942;2023-04-03T09:49:24;19.20;42.40
15099;DHT22;33900;53.640;9.942;2023-04-03T09:51:50;19.20;42.80
15099;DHT22;33900;53.640;9.942;2023-04-03T09:54:30;19.10;42.90
15099;DHT22;33900;53.640;9.942;2023-04-03T09:56:57;19.10;43.20
15099;DHT22;33900;53.640;9.942;2023-04-03T09:59:26;19.00;42.70
15099;DHT22;33900;53.640;9.942;2023-04-03T10:01:58;18.90;43.00
15099;DHT22;33900;53.640;9.942;2023-04-03T10:04:24;18.60;42.80
15099;DHT22;33900;53.640;9.942;2023-04-03T10:06:51;18.40;43.40
15099;DHT22;33900;53.640;9.942;2023-04-03T10:12:06;18.00;44.60
15099;DHT22;33900;53.640;9.942;2023-04-03T10:19:58;17.60;44.70
15099;DHT22;33900;53.640;9.942;2023-04-03T10:22:34;17.30;44.70
15099;DHT22;33900;53.640;9.942;2023-04-03T10:28:31;17.10;46.00
15099;DHT22;33900;53.640;9.942;2023-04-03T10:33:13;16.80;46.00
15099;DHT22;33900;53.640;9.942;2023-04-03T10:35:44;16.60;46.20
15099;DHT22;33900;53.640;9.942;2023-04-03T10:38:20;16.60;46.60
15099;DHT22;33900;53.640;9.942;2023-04-03T10:46:11;16.40;46.60
15099;DHT22;33900;53.640;9.942;2023-04-03T10:59:21;15.70;47.20
15099;DHT22;33900;53.640;9.942;2023-04-03T11:01:54;15.80;47.30
15099;DHT22;33900;53.640;9.942;2023-04-03T11:04:26;15.80;47.60
15099;DHT22;33900;53.640;9.942;2023-04-03T11:07:08;15.60;47.10
15099;DHT22;33900;53.640;9.942;2023-04-03T11:09:41;15.30;46.80
15099;DHT22;33900;53.640;9.942;2023-04-03T11:12:18;15.10;47.10
15099;DHT22;33900;53.640;9.942;2023-04-03T11:14:48;14.90;47.30
15099;DHT22;33900;53.640;9.942;2023-04-03T11:26:40;14.60;48.30
15099;DHT22;33900;53.640;9.942;2023-04-03T11:29:23;14.70;49.60
15099;DHT22;33900;53.640;9.942;2023-04-03T11:34:44;15.00;49.20
15099;DHT22;33900;53.640;9.942;2023-04-03T11:37:33;15.30;49.40
15099;DHT22;33900;53.640;9.942;2023-04-03T11:40:02;15.50;48.40
15099;DHT22;33900;53.640;9.942;2023-04-03T11:42:32;15.70;47.90
15099;DHT22;33900;53.640;9.942;2023-04-03T11:45:17;15.90;47.60
15099;DHT22;33900;53.640;9.942;2023-04-03T11:51:48;15.90;47.70
15099;DHT22;33900;53.640;9.942;2023-04-03T11:57:41;15.90;47.70
15099;DHT22;33900;53.640;9.942;2023-04-03T12:00:00;15.80;47.50
15099;DHT22;33900;53.640;9.942;2023-04-03T12:02:36;15.70;47.70
15099;DHT22;33900;53.640;9.942;2023-04-03T12:08:15;15.30;47.90
15099;DHT22;33900;53.640;9.942;2023-04-03T12:10:33;15.20;48.30
15099;DHT22;33900;53.640;9.942;2023-04-03T12:12:59;15.00;48.30
15099;DHT22;33900;53.640;9.942;2023-04-03T12:16:18;14.90;48.50
15099;DHT22;33900;53.640;9.942;2023-04-03T12:21:01;14.70;49.20
15099;DHT22;33900;53.640;9.942;2023-04-03T12:23:28;14.60;48.90
15099;DHT22;33900;53.640;9.942;2023-04-03T12:26:06;14.50;49.00
15099;DHT22;33900;53.640;9.942;2023-04-03T12:28:44;14.40;49.80
15099;DHT22;33900;53.640;9.942;2023-04-03T12:31:12;14.50;49.30
15099;DHT22;33900;53.640;9.942;2023-04-03T12:36:08;14.70;49.20
15099;DHT22;33900;53.640;9.942;2023-04-03T12:38:38;14.80;48.50
15099;DHT22;33900;53.640;9.942;2023-04-03T12:51:04;14.30;47.00
15099;DHT22;33900;53.640;9.942;2023-04-03T12:53:34;14.30;47.90
15099;DHT22;33900;53.640;9.942;2023-04-03T12:58:46;14.30;48.20
15099;DHT22;33900;53.640;9.942;2023-04-03T13:01:12;14.40;47.90
15099;DHT22;33900;53.640;9.942;2023-04-03T13:03:40;14.40;47.90
15099;DHT22;33900;53.640;9.942;2023-04-03T13:06:06;14.50;48.10
15099;DHT22;33900;53.640;9.942;2023-04-03T13:08:32;14.60;48.80
15099;DHT22;33900;53.640;9.942;2023-04-03T13:10:59;14.80;48.70
15099;DHT22;33900;53.640;9.942;2023-04-03T13:13:27;14.90;48.60
15099;DHT22;33900;53.640;9.942;2023-04-03T13:15:52;15.00;48.40
15099;DHT22;33900;53.640;9.942;2023-04-03T13:20:51;15.30;47.80
15099;DHT22;33900;53.640;9.942;2023-04-03T13:23:17;15.40;48.20
15099;DHT22;33900;53.640;9.942;2023-04-03T13:25:48;15.50;48.10
15099;DHT22;33900;53.640;9.942;2023-04-03T13:28:16;15.50;47.20
15099;DHT22;33900;53.640;9.942;2023-04-03T13:30:54;15.50;47.60
15099;DHT22;33900;53.640;9.942;2023-04-03T13:33:22;15.60;48.00
15099;DHT22;33900;53.640;9.942;2023-04-03T13:35:48;15.70;47.50
15099;DHT22;33900;53.640;9.942;2023-04-03T13:38:24;15.70;47.80
15099;DHT22;33900;53.640;9.942;2023-04-03T13:40:57;15.80;47.90
15099;DHT22;33900;53.640;9.942;2023-04-03T13:43:29;15.90;47.60
15099;DHT22;33900;53.640;9.942;2023-04-03T13:48:40;16.10;46.70
15099;DHT22;33900;53.640;9.942;2023-04-03T13:53:41;16.00;44.90
15099;DHT22;33900;53.640;9.942;2023-04-03T13:56:16;15.80;45.10
15099;DHT22;33900;53.640;9.942;2023-04-03T14:01:44;15.90;46.10
15099;DHT22;33900;53.640;9.942;2023-04-03T14:04:22;15.80;45.80
15099;DHT22;33900;53.640;9.942;2023-04-03T14:06:55;15.80;46.10
15099;DHT22;33900;53.640;9.942;2023-04-03T14:09:22;15.80;46.00
15099;DHT22;33900;53.640;9.942;2023-04-03T14:11:49;15.90;46.50
15099;DHT22;33900;53.640;9.942;2023-04-03T14:14:21;15.90;46.30
15099;DHT22;33900;53.640;9.942;2023-04-03T14:20:39;16.00;46.50
15099;DHT22;33900;53.640;9.942;2023-04-03T14:23:09;16.00;46.60
15099;DHT22;33900;53.640;9.942;2023-04-03T14:25:38;16.00;46.50
15099;DHT22;33900;53.640;9.942;2023-04-03T14:28:17;16.00;46.60
15099;DHT22;33900;53.640;9.942;2023-04-03T14:30:56;16.00;47.10
15099;DHT22;33900;53.640;9.942;2023-04-03T14:33:23;15.90;46.30
15099;DHT22;33900;53.640;9.942;2023-04-03T14:35:53;15.80;45.90
15099;DHT22;33900;53.640;9.942;2023-04-03T14:38:23;15.60;45.90
15099;DHT22;33900;53.640;9.942;2023-04-03T14:41:29;15.50;46.20
15099;DHT22;33900;53.640;9.942;2023-04-03T14:44:17;15.40;46.70
15099;DHT22;33900;53.640;9.942;2023-04-03T14:46:44;15.40;46.90
15099;DHT22;33900;53.640;9.942;2023-04-03T14:49:15;15.40;46.90
15099;DHT22;33900;53.640;9.942;2023-04-03T14:51:45;15.40;46.70
15099;DHT22;33900;53.640;9.942;2023-04-03T14:57:16;15.40;47.10
15099;DHT22;33900;53.640;9.942;2023-04-03T14:59:43;15.30;46.40
15099;DHT22;33900;53.640;9.942;2023-04-03T15:02:28;15.30;46.90
15099;DHT22;33900;53.640;9.942;2023-04-03T15:04:55;15.20;46.50
15099;DHT22;33900;53.640;9.942;2023-04-03T15:07:21;15.00;46.10
15099;DHT22;33900;53.640;9.942;2023-04-03T15:09:48;14.80;45.90
15099;DHT22;33900;53.640;9.942;2023-04-03T15:12:15;14.70;46.40
15099;DHT22;33900;53.640;9.942;2023-04-03T15:14:41;14.70;46.70
15099;DHT22;33900;53.640;9.942;2023-04-03T15:17:08;14.70;47.30
15099;DHT22;33900;53.640;9.942;2023-04-03T15:19:38;14.70;47.30
15099;DHT22;33900;53.640;9.942;2023-04-03T15:22:05;14.70;48.10
15099;DHT22;33900;53.640;9.942;2023-04-03T15:24:33;14.70;47.70
15099;DHT22;33900;53.640;9.942;2023-04-03T15:26:59;14.70;48.10
15099;DHT22;33900;53.640;9.942;2023-04-03T15:29:25;14.60;47.60
15099;DHT22;33900;53.640;9.942;2023-04-03T15:31:51;14.50;47.80
15099;DHT22;33900;53.640;9.942;2023-04-03T15:34:18;14.40;47.60
15099;DHT22;33900;53.640;9.942;2023-04-03T15:36:44;14.20;47.50
15099;DHT22;33900;53.640;9.942;2023-04-03T15:39:10;14.00;47.70
15099;DHT22;33900;53.640;9.942;2023-04-03T15:41:36;13.80;48.10
15099;DHT22;33900;53.640;9.942;2023-04-03T15:44:02;13.60;48.20
15099;DHT22;33900;53.640;9.942;2023-04-03T15:46:27;13.40;48.30
15099;DHT22;33900;53.640;9.942;2023-04-03T15:48:53;13.30;48.60
15099;DHT22;33900;53.640;9.942;2023-04-03T15:51:19;13.30;49.10
15099;DHT22;33900;53.640;9.942;2023-04-03T15:53:45;13.30;49.40
15099;DHT22;33900;53.640;9.942;2023-04-03T15:56:26;13.30;49.60
15099;DHT22;33900;53.640;9.942;2023-04-03T15:59:07;13.40;49.50
15099;DHT22;33900;53.640;9.942;2023-04-03T16:01:33;13.40;49.40
15099;DHT22;33900;53.640;9.942;2023-04-03T16:04:01;13.40;49.70
15099;DHT22;33900;53.640;9.942;2023-04-03T16:06:30;13.40;50.00
15099;DHT22;33900;53.640;9.942;2023-04-03T16:09:29;13.50;50.10
15099;DHT22;33900;53.640;9.942;2023-04-03T16:15:13;13.30;49.90
15099;DHT22;33900;53.640;9.942;2023-04-03T16:17:40;13.20;50.00
15099;DHT22;33900;53.640;9.942;2023-04-03T16:20:25;13.10;50.10
15099;DHT22;33900;53.640;9.942;2023-04-03T16:23:01;12.90;50.20
15099;DHT22;33900;53.640;9.942;2023-04-03T16:25:41;12.80;50.20
15099;DHT22;33900;53.640;9.942;2023-04-03T16:28:31;12.70;50.40
15099;DHT22;33900;53.640;9.942;2023-04-03T16:31:15;12.50;50.50
15099;DHT22;33900;53.640;9.942;2023-04-03T16:37:20;12.30;51.00
15099;DHT22;33900;53.640;9.942;2023-04-03T16:39:47;12.20;51.10
15099;DHT22;33900;53.640;9.942;2023-04-03T16:42:13;12.20;51.30
15099;DHT22;33900;53.640;9.942;2023-04-03T16:44:50;12.10;51.50
15099;DHT22;33900;53.640;9.942;2023-04-03T16:47:17;12.10;52.50
15099;DHT22;33900;53.640;9.942;2023-04-03T16:49:54;12.00;52.50
15099;DHT22;33900;53.640;9.942;2023-04-03T16:52:28;12.00;52.00
15099;DHT22;33900;53.640;9.942;2023-04-03T16:58:25;11.80;52.20
15099;DHT22;33900;53.640;9.942;2023-04-03T17:00:53;11.70;52.30
15099;DHT22;33900;53.640;9.942;2023-04-03T17:03:20;11.70;52.50
15099;DHT22;33900;53.640;9.942;2023-04-03T17:05:52;11.60;52.80
15099;DHT22;33900;53.640;9.942;2023-04-03T17:08:23;11.60;52.80
15099;DHT22;33900;53.640;9.942;2023-04-03T17:10:59;11.50;53.00
15099;DHT22;33900;53.640;9.942;2023-04-03T17:13:39;11.40;53.20
15099;DHT22;33900;53.640;9.942;2023-04-03T17:16:07;11.30;53.30
15099;DHT22;33900;53.640;9.942;2023-04-03T17:18:35;11.30;53.50
15099;DHT22;33900;53.640;9.942;2023-04-03T17:21:01;11.20;53.60
15099;DHT22;33900;53.640;9.942;2023-04-03T17:23:30;11.10;53.80
15099;DHT22;33900;53.640;9.942;2023-04-03T17:26:02;11.10;54.30
15099;DHT22;33900;53.640;9.942;2023-04-03T17:28:41;11.00;54.20
15099;DHT22;33900;53.640;9.942;2023-04-03T17:31:09;10.90;54.10
15099;DHT22;33900;53.640;9.942;2023-04-03T17:33:42;10.80;54.10
15099;DHT22;33900;53.640;9.942;2023-04-03T17:36:08;10.70;54.10
15099;DHT22;33900;53.640;9.942;2023-04-03T17:38:35;10.60;54.20
15099;DHT22;33900;53.640;9.942;2023-04-03T17:41:14;10.60;54.60
15099;DHT22;33900;53.640;9.942;2023-04-03T17:43:41;10.50;54.70
15099;DHT22;33900;53.640;9.942;2023-04-03T17:49:03;10.30;55.10